sensor_id;sensor_type;location;lat;lon;timestamp;pressure;altitude;pressure_sealevel;temperature;humidity
10948;BME280;5526;42.070;24.752;2023-05-23T00:00:58;98673.91;;;15.65;100.00
10948;BME280;5526;42.070;24.752;2023-05-23T00:03:25;98668.31;;;15.66;100.00
10948;BME280;5526;42.070;24.752;2023-05-23T00:05:52;98675.22;;;15.67;100.00
10948;BME280;5526;42.070;24.752;2023-05-23T00:08:19;98676.88;;;15.63;100.00
10948;BME280;5526;42.070;24.752;2023-05-23T00:10:46;98679.88;;;15.57;100.00
10948;BME280;5526;42.070;24.752;2023-05-23T00:13:14;98678.31;;;15.56;100.00
10948;BME280;5526;42.070;24.752;2023-05-23T00:15:42;98671.75;;;15.53;100.00
10948;BME280;5526;42.070;24.752;2023-05-23T00:18:09;98660.44;;;15.48;100.00
10948;BME280;5526;42.070;24.752;2023-05-23T00:20:38;98675.28;;;15.62;100.00
10948;BME280;5526;42.070;24.752;2023-05-23T00:23:07;98675.22;;;15.67;100.00
10948;BME280;5526;42.070;24.752;2023-05-23T00:25:34;98673.03;;;15.69;100.00
10948;BME280;5526;42.070;24.752;2023-05-23T00:28:02;98667.25;;;15.67;100.00
10948;BME280;5526;42.070;24.752;2023-05-23T00:30:31;98670.78;;;15.76;100.00
10948;BME280;5526;42.070;24.752;2023-05-23T00:32:59;98668.13;;;15.76;100.00
10948;BME280;5526;42.070;24.752;2023-05-23T00:35:26;98669.41;;;15.79;100.00
10948;BME280;5526;42.070;24.752;2023-05-23T00:37:53;98662.25;;;15.79;99.70
10948;BME280;5526;42.070;24.752;2023-05-23T00:40:20;98658.97;;;15.82;99.12
10948;BME280;5526;42.070;24.752;2023-05-23T00:42:48;98660.47;;;15.88;98.35
10948;BME280;5526;42.070;24.752;2023-05-23T00:45:15;98663.13;;;15.88;97.84
10948;BME280;5526;42.070;24.752;2023-05-23T00:47:44;98656.94;;;15.93;96.76
10948;BME280;5526;42.070;24.752;2023-05-23T00:50:13;98665.88;;;15.97;96.40
10948;BME280;5526;42.070;24.752;2023-05-23T00:52:41;98657.91;;;15.97;95.95
10948;BME280;5526;42.070;24.752;2023-05-23T00:55:09;98655.25;;;15.97;95.76
10948;BME280;5526;42.070;24.752;2023-05-23T00:57:37;98657.13;;;15.96;95.19
10948;BME280;5526;42.070;24.752;2023-05-23T01:00:06;98655.53;;;15.95;94.61
10948;BME280;5526;42.070;24.752;2023-05-23T01:02:37;98648.34;;;15.96;94.63
10948;BME280;5526;42.070;24.752;2023-05-23T01:05:08;98649.34;;;15.86;94.63
10948;BME280;5526;42.070;24.752;2023-05-23T01:07:35;98651.34;;;15.81;95.77
10948;BME280;5526;42.070;24.752;2023-05-23T01:10:03;98653.47;;;15.79;96.03
10948;BME280;5526;42.070;24.752;2023-05-23T01:12:38;98653.28;;;15.75;95.97
10948;BME280;5526;42.070;24.752;2023-05-23T01:15:09;98659.97;;;15.59;97.95
10948;BME280;5526;42.070;24.752;2023-05-23T01:17:42;98664.97;;;15.61;98.72
10948;BME280;5526;42.070;24.752;2023-05-23T01:20:17;98660.44;;;15.48;99.92
10948;BME280;5526;42.070;24.752;2023-05-23T01:22:59;98649.03;;;15.47;99.20
10948;BME280;5526;42.070;24.752;2023-05-23T01:25:46;98654.53;;;15.51;97.71
10948;BME280;5526;42.070;24.752;2023-05-23T01:28:21;98645.63;;;15.60;97.52
10948;BME280;5526;42.070;24.752;2023-05-23T01:30:56;98653.59;;;15.74;96.74
10948;BME280;5526;42.070;24.752;2023-05-23T01:33:24;98651.63;;;15.79;95.95
10948;BME280;5526;42.070;24.752;2023-05-23T01:35:51;98651.50;;;15.84;95.42
10948;BME280;5526;42.070;24.752;2023-05-23T01:38:19;98649.94;;;15.83;95.58
10948;BME280;5526;42.070;24.752;2023-05-23T01:40:46;98651.22;;;15.86;95.72
10948;BME280;5526;42.070;24.752;2023-05-23T01:43:13;98648.97;;;15.79;96.26
10948;BME280;5526;42.070;24.752;2023-05-23T01:45:42;98643.16;;;15.77;96.76
10948;BME280;5526;42.070;24.752;2023-05-23T01:48:10;98641.41;;;15.59;97.72
10948;BME280;5526;42.070;24.752;2023-05-23T01:50:39;98647.88;;;15.53;98.16
10948;BME280;5526;42.070;24.752;2023-05-23T01:53:06;98646.69;;;15.46;98.53
10948;BME280;5526;42.070;24.752;2023-05-23T01:55:34;98642.66;;;15.48;98.37
10948;BME280;5526;42.070;24.752;2023-05-23T01:58:02;98643.44;;;15.49;97.55
10948;BME280;5526;42.070;24.752;2023-05-23T02:00:29;98647.88;;;15.53;97.38
10948;BME280;5526;42.070;24.752;2023-05-23T02:02:58;98643.81;;;15.42;98.06
10948;BME280;5526;42.070;24.752;2023-05-23T02:05:25;98638.16;;;15.17;99.76
10948;BME280;5526;42.070;24.752;2023-05-23T02:07:52;98637.72;;;15.10;100.00
10948;BME280;5526;42.070;24.752;2023-05-23T02:10:19;98643.25;;;15.13;100.00
10948;BME280;5526;42.070;24.752;2023-05-23T02:12:46;98637.16;;;15.13;100.00
10948;BME280;5526;42.070;24.752;2023-05-23T02:15:14;98641.00;;;14.88;100.00
10948;BME280;5526;42.070;24.752;2023-05-23T02:17:41;98633.47;;;14.95;100.00
10948;BME280;5526;42.070;24.752;2023-05-23T02:20:10;98628.31;;;15.04;100.00
10948;BME280;5526;42.070;24.752;2023-05-23T02:22:37;98627.41;;;15.08;100.00
10948;BME280;5526;42.070;24.752;2023-05-23T02:25:06;98628.34;;;15.17;99.39
10948;BME280;5526;42.070;24.752;2023-05-23T02:27:33;98638.03;;;15.08;99.87
10948;BME280;5526;42.070;24.752;2023-05-23T02:30:00;98631.66;;;15.09;100.00
10948;BME280;5526;42.070;24.752;2023-05-23T02:32:27;98636.97;;;15.09;100.00
10948;BME280;5526;42.070;24.752;2023-05-23T02:34:54;98639.09;;;15.07;100.00
10948;BME280;5526;42.070;24.752;2023-05-23T02:37:23;98634.75;;;14.98;100.00
10948;BME280;5526;42.070;24.752;2023-05-23T02:39:50;98641.44;;;14.95;100.00
10948;BME280;5526;42.070;24.752;2023-05-23T02:42:17;98642.38;;;14.86;100.00
10948;BME280;5526;42.070;24.752;2023-05-23T02:44:53;98643.31;;;14.76;100.00
10948;BME280;5526;42.070;24.752;2023-05-23T02:47:20;98637.81;;;14.73;100.00
10948;BME280;5526;42.070;24.752;2023-05-23T02:49:47;98639.66;;;14.72;100.00
10948;BME280;5526;42.070;24.752;2023-05-23T02:52:14;98640.38;;;14.78;100.00
10948;BME280;5526;42.070;24.752;2023-05-23T02:54:42;98641.38;;;14.82;100.00
10948;BME280;5526;42.070;24.752;2023-05-23T02:57:10;98639.00;;;14.80;100.00
10948;BME280;5526;42.070;24.752;2023-05-23T02:59:37;98632.16;;;14.79;100.00
10948;BME280;5526;42.070;24.752;2023-05-23T03:02:04;98636.50;;;14.89;100.00
10948;BME280;5526;42.070;24.752;2023-05-23T03:04:31;98636.13;;;14.95;100.00
10948;BME280;5526;42.070;24.752;2023-05-23T03:06:58;98633.91;;;15.02;100.00
10948;BME280;5526;42.070;24.752;2023-05-23T03:09:25;98628.78;;;15.06;100.00
10948;BME280;5526;42.070;24.752;2023-05-23T03:11:54;98627.41;;;15.08;100.00
10948;BME280;5526;42.070;24.752;2023-05-23T03:14:21;98635.03;;;15.15;100.00
10948;BME280;5526;42.070;24.752;2023-05-23T03:16:48;98631.47;;;15.19;99.89
10948;BME280;5526;42.070;24.752;2023-05-23T03:19:15;98626.56;;;15.13;100.00
10948;BME280;5526;42.070;24.752;2023-05-23T03:21:42;98629.63;;;15.20;99.74
10948;BME280;5526;42.070;24.752;2023-05-23T03:24:09;98640.59;;;15.45;97.70
10948;BME280;5526;42.070;24.752;2023-05-23T03:26:36;98637.66;;;15.74;95.29
10948;BME280;5526;42.070;24.752;2023-05-23T03:29:05;98638.13;;;16.03;93.43
10948;BME280;5526;42.070;24.752;2023-05-23T03:31:32;98645.97;;;16.08;94.56
10948;BME280;5526;42.070;24.752;2023-05-23T03:33:59;98637.94;;;16.13;94.40
10948;BME280;5526;42.070;24.752;2023-05-23T03:36:26;98645.78;;;16.18;94.31
10948;BME280;5526;42.070;24.752;2023-05-23T03:38:53;98637.03;;;16.17;94.96
10948;BME280;5526;42.070;24.752;2023-05-23T03:41:20;98617.59;;;15.81;96.37
10948;BME280;5526;42.070;24.752;2023-05-23T03:43:47;98649.63;;;15.98;96.88
10948;BME280;5526;42.070;24.752;2023-05-23T03:46:16;98646.59;;;15.91;97.15
10948;BME280;5526;42.070;24.752;2023-05-23T03:48:43;98642.84;;;16.06;96.21
10948;BME280;5526;42.070;24.752;2023-05-23T03:51:10;98652.56;;;16.24;95.09
10948;BME280;5526;42.070;24.752;2023-05-23T03:53:38;98645.06;;;16.26;94.85
10948;BME280;5526;42.070;24.752;2023-05-23T03:56:05;98640.44;;;16.31;94.79
10948;BME280;5526;42.070;24.752;2023-05-23T03:58:32;98644.38;;;16.34;94.71
10948;BME280;5526;42.070;24.752;2023-05-23T04:00:59;98650.34;;;16.39;94.75
10948;BME280;5526;42.070;24.752;2023-05-23T04:03:29;98646.84;;;16.44;95.33
10948;BME280;5526;42.070;24.752;2023-05-23T04:05:57;98637.28;;;16.43;94.67
10948;BME280;5526;42.070;24.752;2023-05-23T04:08:25;98652.72;;;16.54;94.62
10948;BME280;5526;42.070;24.752;2023-05-23T04:10:54;98653.34;;;16.73;94.19
10948;BME280;5526;42.070;24.752;2023-05-23T04:13:21;98645.25;;;17.01;93.63
10948;BME280;5526;42.070;24.752;2023-05-23T04:15:49;98657.56;;;17.19;93.63
10948;BME280;5526;42.070;24.752;2023-05-23T04:18:17;98654.69;;;17.37;93.02
10948;BME280;5526;42.070;24.752;2023-05-23T04:20:46;98654.00;;;17.54;93.09
10948;BME280;5526;42.070;24.752;2023-05-23T04:23:13;98654.06;;;17.71;92.33
10948;BME280;5526;42.070;24.752;2023-05-23T04:25:40;98657.50;;;17.63;93.18
10948;BME280;5526;42.070;24.752;2023-05-23T04:28:07;98659.84;;;17.64;94.25
10948;BME280;5526;42.070;24.752;2023-05-23T04:30:35;98660.44;;;17.92;92.76
10948;BME280;5526;42.070;24.752;2023-05-23T04:33:02;98663.13;;;18.09;92.04
10948;BME280;5526;42.070;24.752;2023-05-23T04:35:30;98662.25;;;18.30;90.80
10948;BME280;5526;42.070;24.752;2023-05-23T04:38:00;98660.19;;;18.27;91.36
10948;BME280;5526;42.070;24.752;2023-05-23T04:40:28;98667.13;;;18.37;89.96
10948;BME280;5526;42.070;24.752;2023-05-23T04:42:55;98665.56;;;18.53;88.57
10948;BME280;5526;42.070;24.752;2023-05-23T04:45:22;98670.31;;;18.64;87.68
10948;BME280;5526;42.070;24.752;2023-05-23T04:47:51;98659.63;;;18.90;86.65
10948;BME280;5526;42.070;24.752;2023-05-23T04:50:19;98668.59;;;18.68;87.49
10948;BME280;5526;42.070;24.752;2023-05-23T04:52:47;98676.56;;;18.60;87.85
10948;BME280;5526;42.070;24.752;2023-05-23T04:55:16;98677.53;;;18.81;88.13
10948;BME280;5526;42.070;24.752;2023-05-23T04:57:44;98677.78;;;18.37;90.22
10948;BME280;5526;42.070;24.752;2023-05-23T05:00:12;98683.00;;;18.42;90.00
10948;BME280;5526;42.070;24.752;2023-05-23T05:02:40;98675.13;;;18.37;90.65
10948;BME280;5526;42.070;24.752;2023-05-23T05:05:08;98682.91;;;18.25;92.94
10948;BME280;5526;42.070;24.752;2023-05-23T05:07:36;98674.44;;;18.14;94.89
10948;BME280;5526;42.070;24.752;2023-05-23T05:10:04;98676.81;;;18.24;94.72
10948;BME280;5526;42.070;24.752;2023-05-23T05:12:33;98682.13;;;18.33;94.19
10948;BME280;5526;42.070;24.752;2023-05-23T05:15:01;98671.19;;;18.26;94.84
10948;BME280;5526;42.070;24.752;2023-05-23T05:17:28;98675.00;;;18.59;93.52
10948;BME280;5526;42.070;24.752;2023-05-23T05:19:55;98677.84;;;18.79;91.74
10948;BME280;5526;42.070;24.752;2023-05-23T05:22:22;98673.13;;;18.85;91.46
10948;BME280;5526;42.070;24.752;2023-05-23T05:24:50;98679.41;;;18.89;91.41
10948;BME280;5526;42.070;24.752;2023-05-23T05:27:17;98682.22;;;18.92;92.03
10948;BME280;5526;42.070;24.752;2023-05-23T05:29:45;98681.44;;;19.00;93.00
10948;BME280;5526;42.070;24.752;2023-05-23T05:32:14;98680.19;;;18.81;94.94
10948;BME280;5526;42.070;24.752;2023-05-23T05:34:41;98688.00;;;19.03;94.75
10948;BME280;5526;42.070;24.752;2023-05-23T05:37:08;98680.16;;;19.23;94.65
10948;BME280;5526;42.070;24.752;2023-05-23T05:39:38;98689.09;;;19.36;93.97
10948;BME280;5526;42.070;24.752;2023-05-23T05:42:05;98696.50;;;19.30;94.22
10948;BME280;5526;42.070;24.752;2023-05-23T05:44:32;98687.97;;;19.45;93.57
10948;BME280;5526;42.070;24.752;2023-05-23T05:47:01;98690.34;;;19.38;94.07
10948;BME280;5526;42.070;24.752;2023-05-23T05:49:28;98690.59;;;19.54;94.34
10948;BME280;5526;42.070;24.752;2023-05-23T05:51:55;98703.94;;;19.62;93.24
10948;BME280;5526;42.070;24.752;2023-05-23T05:54:22;98692.53;;;19.45;94.73
10948;BME280;5526;42.070;24.752;2023-05-23T05:56:49;98698.78;;;19.49;94.32
10948;BME280;5526;42.070;24.752;2023-05-23T05:59:16;98699.53;;;19.66;92.86
10948;BME280;5526;42.070;24.752;2023-05-23T06:01:43;98699.63;;;19.87;91.57
10948;BME280;5526;42.070;24.752;2023-05-23T06:04:11;98705.69;;;19.96;89.96
10948;BME280;5526;42.070;24.752;2023-05-23T06:06:39;98704.88;;;20.12;90.07
10948;BME280;5526;42.070;24.752;2023-05-23T06:09:06;98706.81;;;20.32;89.10
10948;BME280;5526;42.070;24.752;2023-05-23T06:11:33;98709.13;;;20.83;86.19
10948;BME280;5526;42.070;24.752;2023-05-23T06:14:03;98710.16;;;20.91;83.32
10948;BME280;5526;42.070;24.752;2023-05-23T06:16:30;98705.78;;;21.07;81.76
10948;BME280;5526;42.070;24.752;2023-05-23T06:18:58;98703.88;;;21.28;80.85
10948;BME280;5526;42.070;24.752;2023-05-23T06:21:26;98704.94;;;21.48;79.16
10948;BME280;5526;42.070;24.752;2023-05-23T06:23:53;98697.16;;;21.67;77.97
10948;BME280;5526;42.070;24.752;2023-05-23T06:26:20;98701.03;;;22.02;77.12
10948;BME280;5526;42.070;24.752;2023-05-23T06:28:47;98702.72;;;22.18;74.31
10948;BME280;5526;42.070;24.752;2023-05-23T06:31:14;98701.13;;;22.65;73.36
10948;BME280;5526;42.070;24.752;2023-05-23T06:33:41;98698.50;;;22.81;70.66
10948;BME280;5526;42.070;24.752;2023-05-23T06:36:08;98699.75;;;22.71;68.26
10948;BME280;5526;42.070;24.752;2023-05-23T06:38:37;98696.31;;;22.98;67.30
10948;BME280;5526;42.070;24.752;2023-05-23T06:41:04;98691.78;;;22.87;66.26
10948;BME280;5526;42.070;24.752;2023-05-23T06:43:31;98693.50;;;22.67;63.64
10948;BME280;5526;42.070;24.752;2023-05-23T06:45:58;98688.56;;;23.36;62.02
10948;BME280;5526;42.070;24.752;2023-05-23T06:48:25;98687.47;;;23.53;61.56
10948;BME280;5526;42.070;24.752;2023-05-23T06:50:52;98687.88;;;23.39;60.09
10948;BME280;5526;42.070;24.752;2023-05-23T06:53:20;98687.16;;;22.99;59.49
10948;BME280;5526;42.070;24.752;2023-05-23T06:55:49;98685.63;;;23.41;57.83
10948;BME280;5526;42.070;24.752;2023-05-23T06:58:16;98684.09;;;23.01;59.89
10948;BME280;5526;42.070;24.752;2023-05-23T07:00:44;98675.78;;;23.18;59.58
10948;BME280;5526;42.070;24.752;2023-05-23T07:03:11;98684.53;;;23.89;58.41
10948;BME280;5526;42.070;24.752;2023-05-23T07:05:38;98676.13;;;23.59;57.63
10948;BME280;5526;42.070;24.752;2023-05-23T07:08:05;98678.28;;;23.85;57.88
10948;BME280;5526;42.070;24.752;2023-05-23T07:10:32;98678.28;;;23.85;58.92
10948;BME280;5526;42.070;24.752;2023-05-23T07:13:01;98674.31;;;23.94;59.05
10948;BME280;5526;42.070;24.752;2023-05-23T07:15:28;98676.13;;;23.90;59.01
10948;BME280;5526;42.070;24.752;2023-05-23T07:17:55;98675.16;;;24.14;59.08
10948;BME280;5526;42.070;24.752;2023-05-23T07:20:22;98682.06;;;24.46;58.24
10948;BME280;5526;42.070;24.752;2023-05-23T07:22:49;98677.38;;;24.27;56.38
10948;BME280;5526;42.070;24.752;2023-05-23T07:25:17;98671.81;;;24.01;58.34
10948;BME280;5526;42.070;24.752;2023-05-23T07:27:44;98679.03;;;24.32;58.93
10948;BME280;5526;42.070;24.752;2023-05-23T07:30:13;98678.88;;;24.60;57.12
10948;BME280;5526;42.070;24.752;2023-05-23T07:32:41;98672.22;;;24.53;57.91
10948;BME280;5526;42.070;24.752;2023-05-23T07:35:08;98673.31;;;24.33;58.67
10948;BME280;5526;42.070;24.752;2023-05-23T07:37:35;98673.59;;;24.28;57.20
10948;BME280;5526;42.070;24.752;2023-05-23T07:40:03;98660.09;;;24.44;56.97
10948;BME280;5526;42.070;24.752;2023-05-23T07:42:30;98668.13;;;24.25;58.84
10948;BME280;5526;42.070;24.752;2023-05-23T07:44:57;98673.72;;;24.35;58.50
10948;BME280;5526;42.070;24.752;2023-05-23T07:47:27;98664.75;;;25.01;55.92
10948;BME280;5526;42.070;24.752;2023-05-23T07:49:54;98670.63;;;24.87;54.96
10948;BME280;5526;42.070;24.752;2023-05-23T07:52:21;98670.97;;;24.67;55.32
10948;BME280;5526;42.070;24.752;2023-05-23T07:54:48;98664.75;;;25.01;54.32
10948;BME280;5526;42.070;24.752;2023-05-23T07:57:15;98672.16;;;24.50;54.13
10948;BME280;5526;42.070;24.752;2023-05-23T07:59:42;98672.06;;;24.12;52.68
10948;BME280;5526;42.070;24.752;2023-05-23T08:02:09;98662.78;;;24.44;54.08
10948;BME280;5526;42.070;24.752;2023-05-23T08:04:38;98665.53;;;24.28;53.66
10948;BME280;5526;42.070;24.752;2023-05-23T08:07:05;98667.09;;;24.83;52.11
10948;BME280;5526;42.070;24.752;2023-05-23T08:09:34;98671.19;;;25.15;53.23
10948;BME280;5526;42.070;24.752;2023-05-23T08:12:01;98659.16;;;25.28;51.29
10948;BME280;5526;42.070;24.752;2023-05-23T08:14:28;98663.53;;;25.59;50.56
10948;BME280;5526;42.070;24.752;2023-05-23T08:16:55;98657.16;;;25.93;48.67
10948;BME280;5526;42.070;24.752;2023-05-23T08:19:22;98661.31;;;25.64;48.50
10948;BME280;5526;42.070;24.752;2023-05-23T08:21:50;98654.91;;;26.21;46.38
10948;BME280;5526;42.070;24.752;2023-05-23T08:24:18;98656.38;;;25.47;49.58
10948;BME280;5526;42.070;24.752;2023-05-23T08:26:45;98665.22;;;25.67;49.77
10948;BME280;5526;42.070;24.752;2023-05-23T08:29:12;98649.16;;;25.74;49.15
10948;BME280;5526;42.070;24.752;2023-05-23T08:31:40;98655.91;;;26.35;48.84
10948;BME280;5526;42.070;24.752;2023-05-23T08:34:07;98651.06;;;25.96;49.07
10948;BME280;5526;42.070;24.752;2023-05-23T08:36:34;98650.56;;;25.90;50.00
10948;BME280;5526;42.070;24.752;2023-05-23T08:39:02;98653.34;;;26.20;46.72
10948;BME280;5526;42.070;24.752;2023-05-23T08:41:30;98655.03;;;26.28;47.75
10948;BME280;5526;42.070;24.752;2023-05-23T08:43:57;98650.00;;;26.26;46.96
10948;BME280;5526;42.070;24.752;2023-05-23T08:46:24;98649.78;;;26.12;48.24
10948;BME280;5526;42.070;24.752;2023-05-23T08:48:53;98655.13;;;26.64;46.78
10948;BME280;5526;42.070;24.752;2023-05-23T08:51:21;98654.47;;;26.45;46.68
10948;BME280;5526;42.070;24.752;2023-05-23T08:53:49;98653.19;;;26.35;47.46
10948;BME280;5526;42.070;24.752;2023-05-23T08:56:19;98649.28;;;26.59;46.94
10948;BME280;5526;42.070;24.752;2023-05-23T08:58:46;98650.81;;;27.22;45.35
10948;BME280;5526;42.070;24.752;2023-05-23T09:01:14;98649.81;;;27.34;43.89
10948;BME280;5526;42.070;24.752;2023-05-23T09:03:43;98648.34;;;27.07;44.23
10948;BME280;5526;42.070;24.752;2023-05-23T09:06:10;98652.59;;;27.11;43.26
10948;BME280;5526;42.070;24.752;2023-05-23T09:08:37;98643.75;;;27.11;42.17
10948;BME280;5526;42.070;24.752;2023-05-23T09:11:05;98646.72;;;27.35;41.61
10948;BME280;5526;42.070;24.752;2023-05-23T09:13:34;98644.09;;;27.89;41.44
10948;BME280;5526;42.070;24.752;2023-05-23T09:16:03;98638.03;;;28.03;40.00
10948;BME280;5526;42.070;24.752;2023-05-23T09:18:36;98643.03;;;27.54;38.16
10948;BME280;5526;42.070;24.752;2023-05-23T09:21:04;98640.88;;;27.73;37.97
10948;BME280;5526;42.070;24.752;2023-05-23T09:23:32;98641.06;;;27.94;36.79
10948;BME280;5526;42.070;24.752;2023-05-23T09:26:03;98639.53;;;27.97;36.97
10948;BME280;5526;42.070;24.752;2023-05-23T09:28:31;98649.94;;;27.95;37.10
10948;BME280;5526;42.070;24.752;2023-05-23T09:31:01;98641.31;;;27.35;36.96
10948;BME280;5526;42.070;24.752;2023-05-23T09:33:33;98645.31;;;26.79;38.57
10948;BME280;5526;42.070;24.752;2023-05-23T09:36:03;98641.81;;;27.11;39.00
10948;BME280;5526;42.070;24.752;2023-05-23T09:38:30;98648.78;;;27.12;38.43
10948;BME280;5526;42.070;24.752;2023-05-23T09:40:58;98641.28;;;27.32;39.09
10948;BME280;5526;42.070;24.752;2023-05-23T09:43:25;98638.28;;;27.44;39.24
10948;BME280;5526;42.070;24.752;2023-05-23T09:45:54;98644.69;;;26.92;39.78
10948;BME280;5526;42.070;24.752;2023-05-23T09:48:28;98637.22;;;27.15;38.66
10948;BME280;5526;42.070;24.752;2023-05-23T09:50:56;98642.34;;;27.64;38.58
10948;BME280;5526;42.070;24.752;2023-05-23T09:53:23;98637.84;;;27.78;38.46
10948;BME280;5526;42.070;24.752;2023-05-23T09:55:51;98641.09;;;28.01;38.39
10948;BME280;5526;42.070;24.752;2023-05-23T09:58:22;98644.22;;;28.00;36.75
10948;BME280;5526;42.070;24.752;2023-05-23T10:00:50;98635.88;;;27.75;37.47
10948;BME280;5526;42.070;24.752;2023-05-23T10:03:22;98637.31;;;28.13;38.45
10948;BME280;5526;42.070;24.752;2023-05-23T10:05:56;98631.91;;;28.13;38.51
10948;BME280;5526;42.070;24.752;2023-05-23T10:08:32;98640.41;;;28.15;39.07
10948;BME280;5526;42.070;24.752;2023-05-23T10:14:05;98627.47;;;28.45;42.48
10948;BME280;5526;42.070;24.752;2023-05-23T10:16:39;98629.03;;;28.43;44.12
10948;BME280;5526;42.070;24.752;2023-05-23T10:19:19;98623.31;;;28.65;43.31
10948;BME280;5526;42.070;24.752;2023-05-23T10:21:58;98632.19;;;28.62;43.09
10948;BME280;5526;42.070;24.752;2023-05-23T10:24:28;98616.53;;;28.24;44.18
10948;BME280;5526;42.070;24.752;2023-05-23T10:26:55;98623.59;;;28.46;42.82
10948;BME280;5526;42.070;24.752;2023-05-23T10:29:24;98623.53;;;28.36;43.55
10948;BME280;5526;42.070;24.752;2023-05-23T10:31:52;98623.28;;;28.51;42.76
10948;BME280;5526;42.070;24.752;2023-05-23T10:34:26;98623.50;;;28.29;43.07
10948;BME280;5526;42.070;24.752;2023-05-23T10:37:01;98617.31;;;28.35;42.06
10948;BME280;5526;42.070;24.752;2023-05-23T10:39:39;98613.56;;;28.43;40.96
10948;BME280;5526;42.070;24.752;2023-05-23T10:42:12;98612.88;;;28.67;40.54
10948;BME280;5526;42.070;24.752;2023-05-23T10:44:41;98602.81;;;28.68;39.50
10948;BME280;5526;42.070;24.752;2023-05-23T10:47:08;98618.53;;;28.41;41.14
10948;BME280;5526;42.070;24.752;2023-05-23T10:49:38;98612.28;;;28.30;39.66
10948;BME280;5526;42.070;24.752;2023-05-23T10:52:08;98622.75;;;28.32;39.54
10948;BME280;5526;42.070;24.752;2023-05-23T10:54:35;98622.38;;;28.33;41.53
10948;BME280;5526;42.070;24.752;2023-05-23T10:57:03;98614.53;;;28.17;40.48
10948;BME280;5526;42.070;24.752;2023-05-23T10:59:30;98614.13;;;28.12;40.53
10948;BME280;5526;42.070;24.752;2023-05-23T11:01:59;98614.13;;;28.12;40.74
10948;BME280;5526;42.070;24.752;2023-05-23T11:04:27;98612.91;;;28.02;41.93
10948;BME280;5526;42.070;24.752;2023-05-23T11:06:55;98613.63;;;27.96;41.04
10948;BME280;5526;42.070;24.752;2023-05-23T11:09:24;98613.66;;;27.99;39.72
10948;BME280;5526;42.070;24.752;2023-05-23T11:11:54;98613.44;;;28.26;38.84
10948;BME280;5526;42.070;24.752;2023-05-23T11:14:51;98615.16;;;28.51;36.59
10948;BME280;5526;42.070;24.752;2023-05-23T11:17:29;98610.19;;;28.74;38.07
10948;BME280;5526;42.070;24.752;2023-05-23T11:19:58;98612.25;;;29.12;38.20
10948;BME280;5526;42.070;24.752;2023-05-23T11:22:30;98613.88;;;29.69;37.30
10948;BME280;5526;42.070;24.752;2023-05-23T11:25:00;98615.41;;;30.19;37.34
10948;BME280;5526;42.070;24.752;2023-05-23T11:27:29;98616.50;;;30.36;34.54
10948;BME280;5526;42.070;24.752;2023-05-23T11:30:01;98614.38;;;30.85;33.08
10948;BME280;5526;42.070;24.752;2023-05-23T11:32:30;98615.19;;;30.82;34.10
10948;BME280;5526;42.070;24.752;2023-05-23T11:35:00;98609.00;;;30.78;33.25
10948;BME280;5526;42.070;24.752;2023-05-23T11:37:28;98608.69;;;30.52;34.07
10948;BME280;5526;42.070;24.752;2023-05-23T11:39:56;98611.47;;;30.31;35.26
10948;BME280;5526;42.070;24.752;2023-05-23T11:42:24;98602.84;;;30.60;35.53
10948;BME280;5526;42.070;24.752;2023-05-23T11:44:52;98617.28;;;30.36;34.65
10948;BME280;5526;42.070;24.752;2023-05-23T11:47:19;98622.00;;;29.41;39.16
10948;BME280;5526;42.070;24.752;2023-05-23T11:49:46;98622.94;;;28.70;42.28
10948;BME280;5526;42.070;24.752;2023-05-23T11:52:14;98621.19;;;28.34;43.15
10948;BME280;5526;42.070;24.752;2023-05-23T11:54:41;98618.06;;;27.74;43.47
10948;BME280;5526;42.070;24.752;2023-05-23T11:57:09;98616.06;;;27.64;44.21
10948;BME280;5526;42.070;24.752;2023-05-23T11:59:37;98614.91;;;27.65;45.09
10948;BME280;5526;42.070;24.752;2023-05-23T12:02:05;98620.25;;;27.55;45.94
10948;BME280;5526;42.070;24.752;2023-05-23T12:04:34;98621.16;;;27.26;46.84
10948;BME280;5526;42.070;24.752;2023-05-23T12:07:04;98616.50;;;27.26;48.04
10948;BME280;5526;42.070;24.752;2023-05-23T12:09:40;98605.94;;;27.51;46.96
10948;BME280;5526;42.070;24.752;2023-05-23T12:12:07;98605.56;;;28.03;45.68
10948;BME280;5526;42.070;24.752;2023-05-23T12:14:35;98611.22;;;28.42;44.61
10948;BME280;5526;42.070;24.752;2023-05-23T12:17:10;98609.38;;;28.67;43.72
10948;BME280;5526;42.070;24.752;2023-05-23T12:19:38;98608.19;;;28.57;43.31
10948;BME280;5526;42.070;24.752;2023-05-23T12:22:06;98596.00;;;28.20;43.43
10948;BME280;5526;42.070;24.752;2023-05-23T12:24:33;98602.72;;;27.85;43.53
10948;BME280;5526;42.070;24.752;2023-05-23T12:27:02;98589.50;;;28.38;42.47
10948;BME280;5526;42.070;24.752;2023-05-23T12:29:30;98592.69;;;28.47;42.53
10948;BME280;5526;42.070;24.752;2023-05-23T12:31:58;98596.31;;;28.93;41.93
10948;BME280;5526;42.070;24.752;2023-05-23T12:34:27;98585.19;;;29.26;42.44
10948;BME280;5526;42.070;24.752;2023-05-23T12:36:55;98584.78;;;29.28;41.23
10948;BME280;5526;42.070;24.752;2023-05-23T12:39:26;98577.81;;;29.23;40.21
10948;BME280;5526;42.070;24.752;2023-05-23T12:41:54;98583.59;;;29.11;40.93
10948;BME280;5526;42.070;24.752;2023-05-23T12:44:23;98580.81;;;28.97;40.90
10948;BME280;5526;42.070;24.752;2023-05-23T12:46:50;98572.69;;;28.87;40.40
10948;BME280;5526;42.070;24.752;2023-05-23T12:49:17;98573.09;;;28.99;40.81
10948;BME280;5526;42.070;24.752;2023-05-23T12:51:45;98573.81;;;28.82;41.13
10948;BME280;5526;42.070;24.752;2023-05-23T12:54:13;98574.22;;;28.81;40.82
10948;BME280;5526;42.070;24.752;2023-05-23T12:56:40;98565.41;;;29.08;39.64
10948;BME280;5526;42.070;24.752;2023-05-23T12:59:07;98569.69;;;29.55;40.33
10948;BME280;5526;42.070;24.752;2023-05-23T13:01:34;98558.06;;;29.72;38.48
10948;BME280;5526;42.070;24.752;2023-05-23T13:04:01;98553.78;;;29.78;37.63
10948;BME280;5526;42.070;24.752;2023-05-23T13:06:29;98549.16;;;29.75;38.50
10948;BME280;5526;42.070;24.752;2023-05-23T13:08:57;98550.28;;;29.95;36.54